Arzew, Algeria

10:10 AM CET on January 28, 2015 (GMT +0100)
Es Senia | Change Station
CLOSE
Current Station
Airport
Location: Oran,
Elevation: 295 ft
Nearby Weather Stations

Elev 295 ft 35.63 °N, 0.60 °W | Updated 10 minutes ago

Scattered Clouds
Scattered Clouds
50 °F
Feels Like 50 °F
N
6
Wind Variable Wind from SW

Today
High -- | Low -- °F
--% Chance of Precip.
Yesterday
High -- | Low -- °F
Precip. -- in
8:04 AM 6:23 PM
Waxing Gibbous, 63% visible
Pressure 30.24 in
Visibility 6.2 miles
Clouds Scattered Clouds 1600 ft
Scattered Clouds 2000 ft
Dew Point 48 °F
Humidity 94%
Rainfall 0.00 in
Snow Depth Not available.
UV 1 out of 12
Pollen Not available.
Air Quality Not available.
Flu Activity Not available.
METAR DAOO 280900Z 22005KT 9999 SCT016 SCT020 10/09 Q1024

More Conditions Fewer Conditions

Pressure 30.24 in
Visibility 6.2 miles
Clouds Scattered Clouds 1600 ft
Scattered Clouds 2000 ft
Dew Point 48 °F
Humidity 94%
Rainfall 0.00 in
Snow Depth Not available.
UV 1 out of 12
Pollen Not available.
Air Quality Not available.
Flu Activity Not available.
METAR DAOO 280900Z 22005KT 9999 SCT016 SCT020 10/09 Q1024

More Conditions Fewer Conditions

10-Day Weather Forecast

Almanac

Astronomy

Jan. 28, 2015 Rise Set
Actual Time
Civil Twilight
Nautical Twilight
Astronomical Twilight
Moon
Length of Visible Light
Length of Day
Tomorrow will be .
, % of the Moon is Illuminated

Today's Extremes

Country Highs Country Lows

Community

WunderPhotos

Upload Photos

1,791,120 photos uploaded!

WunderBlogs® & News

Nearby

Air Quality

  Air Quality AQ Index Pollutant
Not available.

Snow Depth

Station Depth Elevation

Earthquake Activity

City Distance Mag. Time & Date
Minimum magnitude displayed is 2.5.

Coastal Water Temperatures

Place Temperature

Nearby Weather Stations